Rhourd El Adra — 7TBS — position and weather

sailwx.info

Track history (hours):
 
Tides and Currents Weather Stations Pressure Air Temp Water Temp Dewpoint Dewpoint Depression Visibility Wind Speed Wind Dir Waves Ship Positions

Rhourd El Adra

Last reported at 2015-Jul-28 04:33 UTC. Time now 2015-Jul-28 19:43 UTC.
Position N 35°56' W 000°08'.

Length 156 m; draft 7.1 m.

Type: Ship (hazmat cat C). MMSI: 605026210.

Date/timePositionNaut miles runAvg speedWind from/ knotsBaromVisibWave heightAir tempDewpointWater temp
2015-Jul-28 04:33N 35°56' W 000°08'0 0.2
2015-Jul-28 03:16N 35°56' W 000°09'1 0.3
2015-Jul-28 00:29N 35°56' W 000°10'0 0.3
2015-Jul-27 23:33N 35°56' W 000°10'2 1.6
2015-Jul-27 22:34N 35°57' W 000°11'2 1.6
2015-Jul-27 21:33N 35°56' W 000°12'8 8.3
2015-Jul-27 20:33N 35°55' W 000°02'0 0.0
2015-Jul-27 19:34N 35°55' W 000°02'0 0.1
2015-Jul-27 18:33N 35°55' W 000°02'0 0.1
2015-Jul-27 17:33N 35°55' W 000°03'0 0.0
2015-Jul-27 16:34N 35°55' W 000°03'0 0.1
2015-Jul-27 15:34N 35°55' W 000°02'0 0.2
2015-Jul-27 14:34N 35°55' W 000°02'0 0.3
2015-Jul-27 13:33N 35°55' W 000°02'0 0.2
2015-Jul-27 12:34N 35°55' W 000°02'0 0.3
2015-Jul-27 11:34N 35°56' W 000°01'0 0.3
2015-Jul-27 10:34N 35°56' W 000°01'0 0.3
2015-Jul-27 09:33N 35°56' W 000°01'0 0.4
2015-Jul-27 08:33N 35°57' W 000°01'0 0.4
2015-Jul-27 07:20N 35°57' W 000°02'0 0.5
2015-Jul-27 06:32N 35°57' W 000°02'1 0.6
2015-Jul-27 04:29N 35°57' W 000°04'1 0.6
2015-Jul-27 03:10N 35°57' W 000°05'0 0.6
2015-Jul-27 02:33N 35°57' W 000°05'0 0.5
2015-Jul-27 01:33N 35°57' W 000°06'0 0.3
2015-Jul-27 00:33N 35°57' W 000°06'0 0.2
2015-Jul-26 23:33N 35°57' W 000°06'0 0.3
2015-Jul-26 22:34N 35°58' W 000°07'0 0.1
2015-Jul-26 21:33N 35°58' W 000°07'0 0.1
2015-Jul-26 20:33N 35°58' W 000°07'5 4.9
2015-Jul-26 19:33N 35°57' W 000°13'0 0.5
2015-Jul-26 18:33N 35°58' W 000°13'3 3.1
2015-Jul-26 17:33N 35°54' W 000°14'0 0.4
2015-Jul-26 16:33N 35°54' W 000°14'1 0.6
2015-Jul-26 15:33N 35°55' W 000°13'1 0.6
2015-Jul-26 14:33N 35°54' W 000°13'4 0.2
2015-Jul-25 16:29N 35°51' W 000°15'3 0.6
2015-Jul-25 11:20N 35°53' W 000°12'1 1.8
2015-Jul-25 10:33N 35°54' W 000°14'8 5.4
2015-Jul-25 09:08N 35°59' W 000°07'18 9.6
2015-Jul-25 07:18N 36°12' E 000°08'4 0.9
2015-Jul-25 03:19N 36°09' E 000°06'2 0.9
2015-Jul-25 01:16N 36°07' E 000°05'1 1.2
2015-Jul-25 00:21N 36°06' E 000°04'1 0.8
2015-Jul-24 23:33N 36°06' E 000°03'1 0.6
2015-Jul-24 22:32N 36°05' E 000°03'1 0.4
2015-Jul-24 20:33N 36°05' E 000°02'4 3.7
2015-Jul-24 19:33N 36°03' W 000°02'1010.3
2015-Jul-24 18:33N 35°53' W 000°05'0 0.4
2015-Jul-24 17:33N 35°53' W 000°05'0 0.5
2015-Jul-24 16:33N 35°53' W 000°04'1 0.8
2015-Jul-24 15:33N 35°54' W 000°05'1 0.7
2015-Jul-24 14:33N 35°54' W 000°05'4 4.4
2015-Jul-24 13:33N 35°50' W 000°07'0 0.4
2015-Jul-24 12:33N 35°50' W 000°07'0 0.5
2015-Jul-24 11:33N 35°51' W 000°07'4 2.6
2015-Jul-24 10:09N 35°54' W 000°05'13 3.4
2015-Jul-24 06:13N 36°05' E 000°04'2 0.4
2015-Jul-24 01:30N 36°05' E 000°02'0 0.1
2015-Jul-24 00:30N 36°04' E 000°02'1 0.3
2015-Jul-23 22:29N 36°04' E 000°03'1 0.5
2015-Jul-23 20:17N 36°04' E 000°04'10 2.2
2015-Jul-23 15:33N 36°00' W 000°08'4212.7
2015-Jul-23 12:13N 36°42' W 000°01'1315.6
2015-Jul-23 11:24N 36°54' E 000°04'1315.4
2015-Jul-23 10:33N 37°07' E 000°07'1615.6
2015-Jul-23 09:33N 37°22' E 000°11'3715.7
2015-Jul-23 07:11N 37°59' E 000°21'1115.8
2015-Jul-23 06:30N 38°09' E 000°24'1516.1
2015-Jul-23 05:33N 38°24' E 000°28'1616.0
2015-Jul-23 04:34N 38°39' E 000°34'1915.8
2015-Jul-23 03:22N 38°58' E 000°36'4516.0
2015-Jul-23 00:33N 39°42' E 000°50'1616.2
2015-Jul-22 23:33N 39°58' E 000°56'1615.7
2015-Jul-22 22:33N 40°13' E 000°60'1615.9
2015-Jul-22 21:33N 40°29' E 001°03'1615.8
2015-Jul-22 20:31N 40°44' E 001°07'22 6.4
2015-Jul-22 17:06N 41°06' E 001°13'0 0.0
2015-Jul-22 16:24N 41°06' E 001°13'0 0.0
2015-Jul-22 15:09N 41°06' E 001°13'0 0.0
2015-Jul-22 14:24N 41°06' E 001°13'0 0.0
2015-Jul-22 13:30N 41°06' E 001°13'0 0.0
2015-Jul-21 15:24N 41°06' E 001°13'0 0.0
2015-Jul-21 13:12N 41°06' E 001°13'0 0.0
2015-Jul-20 21:33N 41°06' E 001°13'2 0.6
2015-Jul-20 18:28N 41°05' E 001°15'0 0.0
2015-Jul-20 16:22N 41°05' E 001°15'0 0.0
2015-Jul-20 15:28N 41°05' E 001°15'0 0.0
2015-Jul-20 13:22N 41°05' E 001°15'0 0.0
2015-Jul-20 07:28N 41°05' E 001°15'0 0.0
2015-Jul-19 21:16N 41°05' E 001°15'0 0.0
2015-Jul-19 15:28N 41°05' E 001°15'0 0.0
2015-Jul-19 14:31N 41°05' E 001°15'0 0.2
2015-Jul-19 12:33N 41°04' E 001°15'10 8.7
2015-Jul-19 11:24N 40°55' E 001°11'1315.0
2015-Jul-19 10:33N 40°42' E 001°07'1514.8
2015-Jul-19 09:33N 40°28' E 001°03'1514.6
2015-Jul-19 08:33N 40°14' E 000°58'1515.0
2015-Jul-19 07:32N 39°59' E 000°54'1414.4
2015-Jul-19 06:33N 39°45' E 000°51'1814.1
2015-Jul-19 05:17N 39°27' E 000°46'1114.5
2015-Jul-19 04:33N 39°17' E 000°43'5614.1
2015-Jul-19 00:33N 38°22' E 000°29'1414.1
2015-Jul-18 23:33N 38°08' E 000°24'1514.5
2015-Jul-18 22:33N 37°54' E 000°20'1414.5
2015-Jul-18 21:33N 37°40' E 000°16'1514.8
2015-Jul-18 20:33N 37°25' E 000°12'1514.9
2015-Jul-18 19:33N 37°11' E 000°08'1515.1
2015-Jul-18 18:33N 36°56' E 000°04'1515.1
2015-Jul-18 17:33N 36°41' E 000°00'1515.4
2015-Jul-18 16:33N 36°26' W 000°04'1615.4
2015-Jul-18 15:32N 36°11' W 000°08'1514.9
2015-Jul-18 14:30N 35°56' W 000°13'  
Track history (hours):
 
Tides and Currents Weather Stations Pressure Air Temp Water Temp Dewpoint Dewpoint Depression Visibility Wind Speed Wind Dir Waves Ship Positions

Rhourd El Adra

Last reported at 2015-Jul-28 04:33 UTC. Time now 2015-Jul-28 19:43 UTC.
Position N 35°56' W 000°08'.

Length 156 m; draft 7.1 m.

Type: Ship (hazmat cat C). MMSI: 605026210.

Date/timePositionNaut miles runAvg speedWind from/ knotsBaromVisibWave heightAir tempDewpointWater temp
2015-Jul-28 04:33N 35°56' W 000°08'0 0.2
2015-Jul-28 03:16N 35°56' W 000°09'1 0.3
2015-Jul-28 00:29N 35°56' W 000°10'0 0.3
2015-Jul-27 23:33N 35°56' W 000°10'2 1.6
2015-Jul-27 22:34N 35°57' W 000°11'2 1.6
2015-Jul-27 21:33N 35°56' W 000°12'8 8.3
2015-Jul-27 20:33N 35°55' W 000°02'0 0.0
2015-Jul-27 19:34N 35°55' W 000°02'0 0.1
2015-Jul-27 18:33N 35°55' W 000°02'0 0.1
2015-Jul-27 17:33N 35°55' W 000°03'0 0.0
2015-Jul-27 16:34N 35°55' W 000°03'0 0.1
2015-Jul-27 15:34N 35°55' W 000°02'0 0.2
2015-Jul-27 14:34N 35°55' W 000°02'0 0.3
2015-Jul-27 13:33N 35°55' W 000°02'0 0.2
2015-Jul-27 12:34N 35°55' W 000°02'0 0.3
2015-Jul-27 11:34N 35°56' W 000°01'0 0.3
2015-Jul-27 10:34N 35°56' W 000°01'0 0.3
2015-Jul-27 09:33N 35°56' W 000°01'0 0.4
2015-Jul-27 08:33N 35°57' W 000°01'0 0.4
2015-Jul-27 07:20N 35°57' W 000°02'0 0.5
2015-Jul-27 06:32N 35°57' W 000°02'1 0.6
2015-Jul-27 04:29N 35°57' W 000°04'1 0.6
2015-Jul-27 03:10N 35°57' W 000°05'0 0.6
2015-Jul-27 02:33N 35°57' W 000°05'0 0.5
2015-Jul-27 01:33N 35°57' W 000°06'0 0.3
2015-Jul-27 00:33N 35°57' W 000°06'0 0.2
2015-Jul-26 23:33N 35°57' W 000°06'0 0.3
2015-Jul-26 22:34N 35°58' W 000°07'0 0.1
2015-Jul-26 21:33N 35°58' W 000°07'0 0.1
2015-Jul-26 20:33N 35°58' W 000°07'5 4.9
2015-Jul-26 19:33N 35°57' W 000°13'0 0.5
2015-Jul-26 18:33N 35°58' W 000°13'3 3.1
2015-Jul-26 17:33N 35°54' W 000°14'0 0.4
2015-Jul-26 16:33N 35°54' W 000°14'1 0.6
2015-Jul-26 15:33N 35°55' W 000°13'1 0.6
2015-Jul-26 14:33N 35°54' W 000°13'4 0.2
2015-Jul-25 16:29N 35°51' W 000°15'3 0.6
2015-Jul-25 11:20N 35°53' W 000°12'1 1.8
2015-Jul-25 10:33N 35°54' W 000°14'8 5.4
2015-Jul-25 09:08N 35°59' W 000°07'18 9.6
2015-Jul-25 07:18N 36°12' E 000°08'4 0.9
2015-Jul-25 03:19N 36°09' E 000°06'2 0.9
2015-Jul-25 01:16N 36°07' E 000°05'1 1.2
2015-Jul-25 00:21N 36°06' E 000°04'1 0.8
2015-Jul-24 23:33N 36°06' E 000°03'1 0.6
2015-Jul-24 22:32N 36°05' E 000°03'1 0.4
2015-Jul-24 20:33N 36°05' E 000°02'4 3.7
2015-Jul-24 19:33N 36°03' W 000°02'1010.3
2015-Jul-24 18:33N 35°53' W 000°05'0 0.4
2015-Jul-24 17:33N 35°53' W 000°05'0 0.5
2015-Jul-24 16:33N 35°53' W 000°04'1 0.8
2015-Jul-24 15:33N 35°54' W 000°05'1 0.7
2015-Jul-24 14:33N 35°54' W 000°05'4 4.4
2015-Jul-24 13:33N 35°50' W 000°07'0 0.4
2015-Jul-24 12:33N 35°50' W 000°07'0 0.5
2015-Jul-24 11:33N 35°51' W 000°07'4 2.6
2015-Jul-24 10:09N 35°54' W 000°05'13 3.4
2015-Jul-24 06:13N 36°05' E 000°04'2 0.4
2015-Jul-24 01:30N 36°05' E 000°02'0 0.1
2015-Jul-24 00:30N 36°04' E 000°02'1 0.3
2015-Jul-23 22:29N 36°04' E 000°03'1 0.5
2015-Jul-23 20:17N 36°04' E 000°04'10 2.2
2015-Jul-23 15:33N 36°00' W 000°08'4212.7
2015-Jul-23 12:13N 36°42' W 000°01'1315.6
2015-Jul-23 11:24N 36°54' E 000°04'1315.4
2015-Jul-23 10:33N 37°07' E 000°07'1615.6
2015-Jul-23 09:33N 37°22' E 000°11'3715.7
2015-Jul-23 07:11N 37°59' E 000°21'1115.8
2015-Jul-23 06:30N 38°09' E 000°24'1516.1
2015-Jul-23 05:33N 38°24' E 000°28'1616.0
2015-Jul-23 04:34N 38°39' E 000°34'1915.8
2015-Jul-23 03:22N 38°58' E 000°36'4516.0
2015-Jul-23 00:33N 39°42' E 000°50'1616.2
2015-Jul-22 23:33N 39°58' E 000°56'1615.7
2015-Jul-22 22:33N 40°13' E 000°60'1615.9
2015-Jul-22 21:33N 40°29' E 001°03'1615.8
2015-Jul-22 20:31N 40°44' E 001°07'22 6.4
2015-Jul-22 17:06N 41°06' E 001°13'0 0.0
2015-Jul-22 16:24N 41°06' E 001°13'0 0.0
2015-Jul-22 15:09N 41°06' E 001°13'0 0.0
2015-Jul-22 14:24N 41°06' E 001°13'0 0.0
2015-Jul-22 13:30N 41°06' E 001°13'0 0.0
2015-Jul-21 15:24N 41°06' E 001°13'0 0.0
2015-Jul-21 13:12N 41°06' E 001°13'0 0.0
2015-Jul-20 21:33N 41°06' E 001°13'2 0.6
2015-Jul-20 18:28N 41°05' E 001°15'0 0.0
2015-Jul-20 16:22N 41°05' E 001°15'0 0.0
2015-Jul-20 15:28N 41°05' E 001°15'0 0.0
2015-Jul-20 13:22N 41°05' E 001°15'0 0.0
2015-Jul-20 07:28N 41°05' E 001°15'0 0.0
2015-Jul-19 21:16N 41°05' E 001°15'0 0.0
2015-Jul-19 15:28N 41°05' E 001°15'0 0.0
2015-Jul-19 14:31N 41°05' E 001°15'0 0.2
2015-Jul-19 12:33N 41°04' E 001°15'10 8.7
2015-Jul-19 11:24N 40°55' E 001°11'1315.0
2015-Jul-19 10:33N 40°42' E 001°07'1514.8
2015-Jul-19 09:33N 40°28' E 001°03'1514.6
2015-Jul-19 08:33N 40°14' E 000°58'1515.0
2015-Jul-19 07:32N 39°59' E 000°54'1414.4
2015-Jul-19 06:33N 39°45' E 000°51'1814.1
2015-Jul-19 05:17N 39°27' E 000°46'1114.5
2015-Jul-19 04:33N 39°17' E 000°43'5614.1
2015-Jul-19 00:33N 38°22' E 000°29'1414.1
2015-Jul-18 23:33N 38°08' E 000°24'1514.5
2015-Jul-18 22:33N 37°54' E 000°20'1414.5
2015-Jul-18 21:33N 37°40' E 000°16'1514.8
2015-Jul-18 20:33N 37°25' E 000°12'1514.9
2015-Jul-18 19:33N 37°11' E 000°08'1515.1
2015-Jul-18 18:33N 36°56' E 000°04'1515.1
2015-Jul-18 17:33N 36°41' E 000°00'1515.4
2015-Jul-18 16:33N 36°26' W 000°04'1615.4
2015-Jul-18 15:32N 36°11' W 000°08'1514.9
2015-Jul-18 14:30N 35°56' W 000°13'  

Dump ship's entire track history